Time;durP1;ratioP1;P1;durP2;ratioP2;P2;SDS_P1;SDS_P2;PMS_P1;PMS_P2;Temp;Humidity;BMP_temperature;BMP_pressure;BME280_temperature;BME280_humidity;BME280_pressure;Samples;Min_cycle;Max_cycle;Signal;HPM_P1;HPM_P2
2022/12/20 00:02:10;;;;;;;9.70;4.63;;;;;;;;;;10510171;28;20067;-75
2022/12/20 00:07:23;;;;;;;19.17;5.87;;;;;;;;;;10497835;28;20091;-75
2022/12/20 00:12:28;;;;;;;71.05;18.48;;;;;;;;;;10513381;28;20454;-75
2022/12/20 00:17:31;;;;;;;27.05;9.95;;;;;;;;;;10511401;28;20052;-75
2022/12/20 00:22:34;;;;;;;20.40;8.70;;;;;;;;;;10507315;28;20438;-75
2022/12/20 00:27:38;;;;;;;24.57;8.23;;;;;;;;;;10504817;28;20508;-75
2022/12/20 00:32:41;;;;;;;25.70;8.43;;;;;;;;;;10514188;28;20093;-75
2022/12/20 00:37:45;;;;;;;25.33;7.90;;;;;;;;;;10489461;28;20519;-74
2022/12/20 00:42:49;;;;;;;14.90;6.13;;;;;;;;;;10515420;28;20044;-75
2022/12/20 00:47:52;;;;;;;14.68;5.57;;;;;;;;;;10509138;28;20047;-76
2022/12/20 00:52:55;;;;;;;18.37;6.97;;;;;;;;;;10488363;28;20058;-76
2022/12/20 00:57:59;;;;;;;18.27;6.17;;;;;;;;;;10512931;28;20048;-74
2022/12/20 01:03:03;;;;;;;20.13;7.37;;;;;;;;;;10511630;28;20127;-75
2022/12/20 01:08:07;;;;;;;16.98;5.10;;;;;;;;;;10494704;28;20400;-75
2022/12/20 01:13:11;;;;;;;14.20;5.47;;;;;;;;;;10494808;28;20293;-76
2022/12/20 01:18:15;;;;;;;12.03;4.50;;;;;;;;;;10514970;28;20079;-75
2022/12/20 01:23:17;;;;;;;10.25;4.65;;;;;;;;;;10494458;28;20048;-76
2022/12/20 01:28:22;;;;;;;10.82;4.13;;;;;;;;;;10497786;28;20043;-76
2022/12/20 01:33:24;;;;;;;;;;;;;;;;;;10510187;28;20032;-76
2022/12/20 01:38:28;;;;;;;8.23;3.17;;;;;;;;;;10515028;28;19927;-76
2022/12/20 01:43:46;;;;;;;10.13;3.73;;;;;;;;;;10513372;28;20047;-76
2022/12/20 01:48:51;;;;;;;7.17;2.80;;;;;;;;;;10517670;28;20409;-76
2022/12/20 01:53:58;;;;;;;9.70;2.80;;;;;;;;;;10520509;28;20060;-76
2022/12/20 01:59:04;;;;;;;6.10;2.55;;;;;;;;;;10501406;28;20044;-76
2022/12/20 02:04:06;;;;;;;6.83;2.60;;;;;;;;;;10521949;28;20136;-77
2022/12/20 02:09:09;;;;;;;8.20;3.40;;;;;;;;;;10501774;28;20047;-76
2022/12/20 02:14:19;;;;;;;6.93;2.50;;;;;;;;;;10516705;28;20028;-76
2022/12/20 02:19:27;;;;;;;6.17;2.30;;;;;;;;;;10500690;28;20047;-76
2022/12/20 02:24:45;;;;;;;5.88;2.28;;;;;;;;;;10515764;28;20052;-76
2022/12/20 02:30:02;;;;;;;3.80;1.90;;;;;;;;;;10505966;28;20044;-76
2022/12/20 02:35:07;;;;;;;4.10;2.00;;;;;;;;;;10498827;28;20036;-76
2022/12/20 02:40:10;;;;;;;6.38;2.03;;;;;;;;;;10497512;28;20056;-76
2022/12/20 02:45:16;;;;;;;5.78;2.28;;;;;;;;;;10503617;28;20062;-75
2022/12/20 02:50:22;;;;;;;6.90;2.63;;;;;;;;;;10509157;28;20087;-76
2022/12/20 02:55:29;;;;;;;5.43;2.33;;;;;;;;;;10493710;28;20116;-76
2022/12/20 03:00:38;;;;;;;4.28;1.48;;;;;;;;;;10497750;28;20047;-76
2022/12/20 03:05:43;;;;;;;1.63;1.10;;;;;;;;;;10492649;28;20520;-76
2022/12/20 03:10:46;;;;;;;2.70;1.52;;;;;;;;;;10516484;28;20408;-76
2022/12/20 03:15:50;;;;;;;5.68;1.58;;;;;;;;;;10513968;28;20035;-76
2022/12/20 03:20:54;;;;;;;4.28;1.35;;;;;;;;;;10494505;28;20064;-74
2022/12/20 03:25:57;;;;;;;3.45;1.60;;;;;;;;;;10512712;28;20441;-74
2022/12/20 03:31:01;;;;;;;4.85;1.80;;;;;;;;;;10496440;28;20180;-75
2022/12/20 03:36:07;;;;;;;2.42;1.30;;;;;;;;;;10509075;28;20039;-75
2022/12/20 03:41:12;;;;;;;3.08;1.33;;;;;;;;;;10511268;28;20048;-77
2022/12/20 03:46:22;;;;;;;3.92;1.40;;;;;;;;;;10518256;28;20028;-75
2022/12/20 03:51:25;;;;;;;;;;;;;;;;;;10498012;28;20051;-74
2022/12/20 03:56:28;;;;;;;1.50;0.70;;;;;;;;;;10512601;28;20362;-75
2022/12/20 04:01:35;;;;;;;4.88;1.83;;;;;;;;;;10503201;28;20056;-75
2022/12/20 04:06:38;;;;;;;2.00;1.00;;;;;;;;;;10516981;28;20425;-75
2022/12/20 04:11:42;;;;;;;4.07;1.30;;;;;;;;;;10513996;28;20425;-74
2022/12/20 04:16:46;;;;;;;1.02;0.45;;;;;;;;;;10495074;28;20036;-74
2022/12/20 04:21:49;;;;;;;3.67;1.60;;;;;;;;;;10492454;28;20134;-76
2022/12/20 04:26:52;;;;;;;2.65;1.27;;;;;;;;;;10506736;28;20037;-75
2022/12/20 04:31:58;;;;;;;3.55;1.48;;;;;;;;;;10505861;28;20388;-74
2022/12/20 04:37:01;;;;;;;;;;;;;;;;;;10513533;28;20037;-75
2022/12/20 04:42:05;;;;;;;3.92;1.25;;;;;;;;;;10513774;28;20345;-75
2022/12/20 04:47:09;;;;;;;3.63;1.33;;;;;;;;;;10510674;28;20409;-75
2022/12/20 04:57:32;;;;;;;2.22;1.30;;;;;;;;;;10515029;28;20557;-76
2022/12/20 05:02:36;;;;;;;3.90;1.73;;;;;;;;;;10512893;28;20048;-76
2022/12/20 05:07:39;;;;;;;0.77;0.52;;;;;;;;;;10521354;28;20047;-77
2022/12/20 05:12:42;;;;;;;3.75;1.60;;;;;;;;;;10515494;28;20041;-75
2022/12/20 05:17:46;;;;;;;7.18;1.85;;;;;;;;;;10494278;28;20044;-75
2022/12/20 05:28:09;;;;;;;1.80;0.63;;;;;;;;;;10523524;28;20068;-76
2022/12/20 05:33:13;;;;;;;5.68;1.83;;;;;;;;;;10518155;28;20060;-76
2022/12/20 05:38:16;;;;;;;2.40;1.45;;;;;;;;;;10516952;28;20040;-76
2022/12/20 05:43:19;;;;;;;1.27;0.75;;;;;;;;;;10476451;28;20135;-76
2022/12/20 05:48:25;;;;;;;2.05;1.17;;;;;;;;;;10510884;28;20032;-75
2022/12/20 05:53:29;;;;;;;2.10;0.85;;;;;;;;;;10516727;28;20326;-76
2022/12/20 05:58:32;;;;;;;1.63;1.25;;;;;;;;;;10507021;28;20119;-76
2022/12/20 06:03:36;;;;;;;3.67;1.73;;;;;;;;;;10493639;28;20043;-76
2022/12/20 06:08:40;;;;;;;2.88;1.40;;;;;;;;;;10517034;28;20096;-76
2022/12/20 06:13:42;;;;;;;2.20;1.17;;;;;;;;;;10514907;28;20048;-76
2022/12/20 06:18:47;;;;;;;4.43;1.85;;;;;;;;;;10498452;28;20048;-74
2022/12/20 06:23:53;;;;;;;4.35;1.50;;;;;;;;;;10516717;28;20101;-75
2022/12/20 06:29:00;;;;;;;2.55;1.67;;;;;;;;;;10495804;28;20105;-74
2022/12/20 06:34:06;;;;;;;1.33;1.07;;;;;;;;;;10517564;28;20451;-76
2022/12/20 06:39:09;;;;;;;6.93;1.85;;;;;;;;;;10517873;28;20032;-75
2022/12/20 06:44:13;;;;;;;2.70;1.13;;;;;;;;;;10498681;28;20087;-75
2022/12/20 06:49:17;;;;;;;3.13;1.50;;;;;;;;;;10496645;28;20036;-75
2022/12/20 06:54:20;;;;;;;3.17;1.60;;;;;;;;;;10494633;28;20056;-77
2022/12/20 06:59:23;;;;;;;4.22;1.85;;;;;;;;;;10494706;28;20433;-76
2022/12/20 07:04:27;;;;;;;;;;;;;;;;;;10492548;28;20048;-75
2022/12/20 07:09:31;;;;;;;2.83;1.30;;;;;;;;;;10510947;28;19936;-76
2022/12/20 07:14:33;;;;;;;;;;;;;;;;;;10475714;28;20044;-77
2022/12/20 07:19:36;;;;;;;7.05;2.78;;;;;;;;;;10509270;28;20011;-77
2022/12/20 07:24:41;;;;;;;6.05;2.45;;;;;;;;;;10494095;28;20048;-75
2022/12/20 07:29:45;;;;;;;4.47;2.08;;;;;;;;;;10507939;28;20058;-76
2022/12/20 07:34:47;;;;;;;6.25;2.58;;;;;;;;;;10511405;28;20093;-75
2022/12/20 07:39:51;;;;;;;6.45;3.08;;;;;;;;;;10508077;28;20051;-75
2022/12/20 07:44:54;;;;;;;4.18;1.70;;;;;;;;;;10506704;28;20037;-75
2022/12/20 07:49:58;;;;;;;2.22;1.50;;;;;;;;;;10511759;28;20088;-76
2022/12/20 07:55:05;;;;;;;4.10;2.22;;;;;;;;;;10493664;28;20052;-75
2022/12/20 08:00:19;;;;;;;4.53;2.38;;;;;;;;;;10509258;28;20051;-75
2022/12/20 08:05:32;;;;;;;5.75;2.08;;;;;;;;;;10498370;28;20036;-76
2022/12/20 08:10:46;;;;;;;5.90;2.15;;;;;;;;;;10494143;28;20040;-75
2022/12/20 08:15:50;;;;;;;17.90;5.88;;;;;;;;;;10506172;28;20047;-75
2022/12/20 08:21:03;;;;;;;8.50;3.83;;;;;;;;;;10503776;28;20055;-73
2022/12/20 08:26:08;;;;;;;5.90;3.00;;;;;;;;;;10497847;28;20162;-75
2022/12/20 08:31:21;;;;;;;7.82;3.13;;;;;;;;;;10509583;28;20081;-75
2022/12/20 08:36:34;;;;;;;8.93;2.40;;;;;;;;;;10497366;28;20125;-76
2022/12/20 08:41:48;;;;;;;5.07;2.67;;;;;;;;;;10517276;28;20038;-76
2022/12/20 08:47:01;;;;;;;9.02;4.28;;;;;;;;;;10492892;28;20048;-75
2022/12/20 08:52:14;;;;;;;9.10;3.00;;;;;;;;;;10509652;28;20622;-75
2022/12/20 08:57:29;;;;;;;11.88;3.10;;;;;;;;;;10514154;28;20154;-76
2022/12/20 09:02:40;;;;;;;6.57;2.80;;;;;;;;;;10490163;28;20290;-76
2022/12/20 09:07:43;;;;;;;8.32;3.58;;;;;;;;;;10517806;28;20028;-76
2022/12/20 09:12:47;;;;;;;10.43;4.57;;;;;;;;;;10520254;28;20044;-78
2022/12/20 09:17:51;;;;;;;1.80;1.38;;;;;;;;;;10505274;28;20055;-78
2022/12/20 09:22:54;;;;;;;3.38;1.73;;;;;;;;;;10509974;28;20452;-77
2022/12/20 09:27:58;;;;;;;5.45;2.47;;;;;;;;;;10520388;28;20066;-78
2022/12/20 09:33:01;;;;;;;5.85;2.17;;;;;;;;;;10514212;28;20052;-78
2022/12/20 09:38:12;;;;;;;9.20;3.10;;;;;;;;;;10491206;28;20593;-78
2022/12/20 09:43:20;;;;;;;8.38;2.60;;;;;;;;;;10495192;28;20033;-79
2022/12/20 09:48:25;;;;;;;7.32;2.42;;;;;;;;;;10497676;28;20047;-78
2022/12/20 09:53:33;;;;;;;5.13;2.70;;;;;;;;;;10494273;28;20043;-78
2022/12/20 09:58:43;;;;;;;10.57;3.22;;;;;;;;;;10489943;28;20138;-78
2022/12/20 10:03:46;;;;;;;5.88;2.45;;;;;;;;;;10513180;28;20051;-78
2022/12/20 10:08:51;;;;;;;8.27;2.93;;;;;;;;;;10496605;28;20292;-78
2022/12/20 10:14:04;;;;;;;7.85;2.90;;;;;;;;;;10493202;28;20039;-78
2022/12/20 10:19:15;;;;;;;7.22;2.83;;;;;;;;;;10492426;28;20034;-78
2022/12/20 10:24:30;;;;;;;8.15;3.58;;;;;;;;;;10493335;28;20039;-78
2022/12/20 10:29:44;;;;;;;7.05;3.20;;;;;;;;;;10506861;28;20035;-78
2022/12/20 10:34:51;;;;;;;6.45;2.95;;;;;;;;;;10502396;28;20048;-78
2022/12/20 10:39:56;;;;;;;7.68;3.40;;;;;;;;;;10480999;28;20044;-78
2022/12/20 10:45:25;;;;;;;9.15;3.15;;;;;;;;;;10466985;28;20133;-78
2022/12/20 10:50:35;;;;;;;8.43;3.70;;;;;;;;;;10461319;28;20113;-78
2022/12/20 10:55:48;;;;;;;9.15;4.05;;;;;;;;;;10458335;28;20048;-78
2022/12/20 11:01:07;;;;;;;12.40;3.88;;;;;;;;;;10456927;28;20501;-78
2022/12/20 11:06:17;;;;;;;9.75;3.97;;;;;;;;;;10445003;28;20048;-79
2022/12/20 11:11:30;;;;;;;8.63;4.00;;;;;;;;;;10475995;28;20044;-79
2022/12/20 11:16:38;;;;;;;5.82;3.13;;;;;;;;;;10474126;28;20403;-79
2022/12/20 11:21:44;;;;;;;5.40;2.78;;;;;;;;;;10475724;28;20122;-80
2022/12/20 11:27:02;;;;;;;11.23;3.85;;;;;;;;;;10476537;28;20634;-80
2022/12/20 11:32:16;;;;;;;9.35;4.47;;;;;;;;;;10459974;28;20118;-80
2022/12/20 11:37:20;;;;;;;8.13;4.10;;;;;;;;;;10458380;28;20355;-79
2022/12/20 11:42:27;;;;;;;10.70;4.38;;;;;;;;;;10476813;28;20453;-79
2022/12/20 11:47:47;;;;;;;15.23;5.97;;;;;;;;;;10468030;28;20044;-79
2022/12/20 11:52:51;;;;;;;7.88;2.42;;;;;;;;;;10467628;28;20443;-80
2022/12/20 11:57:57;;;;;;;7.68;3.13;;;;;;;;;;10455148;28;20044;-79
2022/12/20 12:03:26;;;;;;;10.18;3.92;;;;;;;;;;10457179;28;20135;-79
2022/12/20 12:08:32;;;;;;;10.88;4.35;;;;;;;;;;10490208;28;20564;-78
2022/12/20 12:13:36;;;;;;;13.70;4.60;;;;;;;;;;10512017;28;20044;-79
2022/12/20 12:18:41;;;;;;;11.98;4.00;;;;;;;;;;10490098;28;20041;-78
2022/12/20 12:23:54;;;;;;;8.68;4.40;;;;;;;;;;10508842;28;20045;-78
2022/12/20 12:28:58;;;;;;;12.15;4.57;;;;;;;;;;10509964;28;20044;-79
2022/12/20 12:34:07;;;;;;;12.77;4.22;;;;;;;;;;10509978;28;20044;-80
2022/12/20 12:39:17;;;;;;;8.70;4.25;;;;;;;;;;10502876;28;20521;-80
2022/12/20 12:44:29;;;;;;;10.02;5.07;;;;;;;;;;10512245;28;20119;-80
2022/12/20 12:49:34;;;;;;;13.85;4.97;;;;;;;;;;10494746;28;20036;-79
2022/12/20 12:54:37;;;;;;;6.95;3.67;;;;;;;;;;10507992;28;20063;-80
2022/12/20 12:59:42;;;;;;;9.32;4.00;;;;;;;;;;10489275;28;20036;-80
2022/12/20 13:04:54;;;;;;;10.90;4.78;;;;;;;;;;10484148;28;20090;-80
2022/12/20 13:09:57;;;;;;;11.38;5.05;;;;;;;;;;10511062;28;20055;-79
2022/12/20 13:14:59;;;;;;;11.43;5.05;;;;;;;;;;10485920;28;20052;-79
2022/12/20 13:20:16;;;;;;;14.15;5.80;;;;;;;;;;10494756;28;20046;-79
2022/12/20 13:25:28;;;;;;;12.07;5.95;;;;;;;;;;10518562;28;20049;-79
2022/12/20 13:30:32;;;;;;;10.73;5.18;;;;;;;;;;10482425;28;20032;-78
2022/12/20 13:35:46;;;;;;;13.30;6.00;;;;;;;;;;10506096;28;20170;-78
2022/12/20 13:40:56;;;;;;;12.88;5.63;;;;;;;;;;10522094;28;20036;-78
2022/12/20 13:46:07;;;;;;;12.38;5.72;;;;;;;;;;10500388;28;20040;-78
2022/12/20 13:51:15;;;;;;;11.38;5.40;;;;;;;;;;10518255;28;20051;-77
2022/12/20 13:56:39;;;;;;;13.50;6.68;;;;;;;;;;10519453;28;20028;-78
2022/12/20 14:01:48;;;;;;;21.75;9.05;;;;;;;;;;10504006;28;20074;-78
2022/12/20 14:07:01;;;;;;;23.08;8.82;;;;;;;;;;10500213;28;20501;-79
2022/12/20 14:12:05;;;;;;;19.00;9.02;;;;;;;;;;10514262;28;20051;-79
2022/12/20 14:17:15;;;;;;;19.05;8.20;;;;;;;;;;10496558;28;20055;-78
2022/12/20 14:22:19;;;;;;;19.73;8.77;;;;;;;;;;10507850;28;20130;-78
2022/12/20 14:27:21;;;;;;;;;;;;;;;;;;10491596;28;20044;-78
2022/12/20 14:32:24;;;;;;;19.55;9.25;;;;;;;;;;10522659;28;19928;-78
2022/12/20 14:37:30;;;;;;;15.55;7.28;;;;;;;;;;10515899;28;20039;-77
2022/12/20 14:42:38;;;;;;;15.70;7.45;;;;;;;;;;10497441;28;20391;-78
2022/12/20 14:47:41;;;;;;;;;;;;;;;;;;10498296;28;20040;-79
2022/12/20 14:52:48;;;;;;;17.42;7.75;;;;;;;;;;10501194;28;19923;-79
2022/12/20 14:57:52;;;;;;;18.38;8.20;;;;;;;;;;10511751;28;20044;-79
2022/12/20 15:03:00;;;;;;;14.98;7.28;;;;;;;;;;10512533;28;20047;-79
2022/12/20 15:08:15;;;;;;;17.20;7.85;;;;;;;;;;10506045;28;20436;-79
2022/12/20 15:13:20;;;;;;;21.58;10.15;;;;;;;;;;10511963;28;20472;-79
2022/12/20 15:18:22;;;;;;;20.95;8.45;;;;;;;;;;10482247;28;20040;-79
2022/12/20 15:23:26;;;;;;;22.55;9.75;;;;;;;;;;10507521;28;20037;-79
2022/12/20 15:28:30;;;;;;;25.00;9.65;;;;;;;;;;10510473;28;22012;-78
2022/12/20 15:33:34;;;;;;;22.40;8.77;;;;;;;;;;10487159;28;20044;-79
2022/12/20 15:38:38;;;;;;;22.50;9.63;;;;;;;;;;10511512;28;20059;-79
2022/12/20 15:44:05;;;;;;;21.58;9.43;;;;;;;;;;10499351;28;20063;-78
2022/12/20 15:49:07;;;;;;;;;;;;;;;;;;10516731;28;20127;-78
2022/12/20 15:54:17;;;;;;;13.18;5.20;;;;;;;;;;10513048;28;20285;-79
2022/12/20 15:59:21;;;;;;;16.98;6.68;;;;;;;;;;10509744;28;20512;-79
2022/12/20 16:04:46;;;;;;;13.15;6.97;;;;;;;;;;10514340;28;20044;-79
2022/12/20 16:09:50;;;;;;;18.30;7.57;;;;;;;;;;10515830;28;20385;-80
2022/12/20 16:14:53;;;;;;;;;;;;;;;;;;10511727;28;20390;-79
2022/12/20 16:19:57;;;;;;;16.83;6.60;;;;;;;;;;10506374;28;19924;-79
2022/12/20 16:25:01;;;;;;;10.63;4.97;;;;;;;;;;10493153;28;20489;-79
2022/12/20 16:30:05;;;;;;;16.88;6.85;;;;;;;;;;10491896;28;20044;-81
2022/12/20 16:35:13;;;;;;;32.95;17.92;;;;;;;;;;10493237;28;20082;-79
2022/12/20 16:40:18;;;;;;;19.70;6.82;;;;;;;;;;10518524;28;20123;-78
2022/12/20 16:45:22;;;;;;;13.82;6.10;;;;;;;;;;10494525;28;20669;-79
2022/12/20 16:50:26;;;;;;;19.67;7.80;;;;;;;;;;10511477;28;20426;-79
2022/12/20 16:55:28;;;;;;;;;;;;;;;;;;10519696;28;20162;-80
2022/12/20 17:00:39;;;;;;;22.55;7.70;;;;;;;;;;10526772;28;20383;-80
2022/12/20 17:05:46;;;;;;;15.63;7.28;;;;;;;;;;10492557;28;20060;-79
2022/12/20 17:10:50;;;;;;;16.80;7.38;;;;;;;;;;10511764;28;20056;-79
2022/12/20 17:15:56;;;;;;;16.77;7.38;;;;;;;;;;10518727;28;20036;-79
2022/12/20 17:21:00;;;;;;;15.02;7.10;;;;;;;;;;10512206;28;20040;-78
2022/12/20 17:26:03;;;;;;;;;;;;;;;;;;10518055;28;20097;-79
2022/12/20 17:31:11;;;;;;;16.40;7.55;;;;;;;;;;10520291;28;19936;-80
2022/12/20 17:36:14;;;;;;;20.73;9.55;;;;;;;;;;10519672;28;20072;-80
2022/12/20 17:41:21;;;;;;;20.40;8.77;;;;;;;;;;10518993;28;20036;-79
2022/12/20 17:46:26;;;;;;;19.30;8.30;;;;;;;;;;10500619;28;20059;-79
2022/12/20 17:51:32;;;;;;;24.48;9.60;;;;;;;;;;10507516;28;20040;-80
2022/12/20 17:56:35;;;;;;;24.83;10.43;;;;;;;;;;10525490;28;20040;-80
2022/12/20 18:01:40;;;;;;;22.13;10.07;;;;;;;;;;10521848;28;20040;-78
2022/12/20 18:06:44;;;;;;;22.15;9.02;;;;;;;;;;10513546;28;20043;-79
2022/12/20 18:11:47;;;;;;;15.73;7.80;;;;;;;;;;10512333;28;20179;-80
2022/12/20 18:16:51;;;;;;;23.20;10.57;;;;;;;;;;10522489;28;20126;-80
2022/12/20 18:21:54;;;;;;;26.75;11.95;;;;;;;;;;10516557;28;20401;-79
2022/12/20 18:26:57;;;;;;;22.58;10.73;;;;;;;;;;10517506;28;20047;-79
2022/12/20 18:32:03;;;;;;;23.15;10.77;;;;;;;;;;10483936;28;20036;-79
2022/12/20 18:37:05;;;;;;;24.90;9.77;;;;;;;;;;10515620;28;20450;-79
2022/12/20 18:42:08;;;;;;;19.27;8.30;;;;;;;;;;10501447;28;20968;-79
2022/12/20 18:47:13;;;;;;;27.70;10.43;;;;;;;;;;10498925;28;20139;-79
2022/12/20 18:52:15;;;;;;;28.20;11.70;;;;;;;;;;10497538;28;20044;-78
2022/12/20 18:57:18;;;;;;;24.58;10.32;;;;;;;;;;10519464;28;20036;-79
2022/12/20 19:02:23;;;;;;;28.33;11.73;;;;;;;;;;10492512;28;20105;-79
2022/12/20 19:07:26;;;;;;;27.38;11.82;;;;;;;;;;10512145;28;20052;-78
2022/12/20 19:12:29;;;;;;;34.40;14.65;;;;;;;;;;10519567;28;20043;-78
2022/12/20 19:17:34;;;;;;;37.20;15.15;;;;;;;;;;10503779;28;20047;-79
2022/12/20 19:22:38;;;;;;;30.23;11.18;;;;;;;;;;10521912;28;20123;-79
2022/12/20 19:27:43;;;;;;;30.30;11.65;;;;;;;;;;10510295;28;20105;-79
2022/12/20 19:32:48;;;;;;;30.70;12.07;;;;;;;;;;10516985;28;20082;-79
2022/12/20 19:37:51;;;;;;;28.10;12.45;;;;;;;;;;10498640;28;20130;-79
2022/12/20 19:42:55;;;;;;;48.57;18.50;;;;;;;;;;10511488;28;20246;-80
2022/12/20 19:47:59;;;;;;;31.37;12.07;;;;;;;;;;10467867;28;20040;-79
2022/12/20 19:53:02;;;;;;;28.90;11.70;;;;;;;;;;10508872;28;20036;-80
2022/12/20 19:58:05;;;;;;;40.45;16.05;;;;;;;;;;10514407;28;20514;-79
2022/12/20 20:03:11;;;;;;;25.02;10.48;;;;;;;;;;10494661;28;20524;-80
2022/12/20 20:08:15;;;;;;;25.15;10.65;;;;;;;;;;10509734;28;20047;-80
2022/12/20 20:13:18;;;;;;;17.63;8.50;;;;;;;;;;10515447;28;20052;-79
2022/12/20 20:18:30;;;;;;;28.95;10.88;;;;;;;;;;10487108;28;20040;-79
2022/12/20 20:23:32;;;;;;;24.10;10.35;;;;;;;;;;10495485;28;20117;-79
2022/12/20 20:28:36;;;;;;;25.92;11.05;;;;;;;;;;10508245;28;20047;-79
2022/12/20 20:33:49;;;;;;;31.05;13.38;;;;;;;;;;10499809;28;20033;-79
2022/12/20 20:38:52;;;;;;;21.30;9.52;;;;;;;;;;10491348;28;20090;-79
2022/12/20 20:43:56;;;;;;;21.87;9.53;;;;;;;;;;10515688;28;20043;-79
2022/12/20 20:49:02;;;;;;;17.85;7.80;;;;;;;;;;10506262;28;20470;-79
2022/12/20 20:54:05;;;;;;;19.17;8.43;;;;;;;;;;10491139;28;20524;-80
2022/12/20 20:59:09;;;;;;;;;;;;;;;;;;10511569;28;20539;-78
2022/12/20 21:04:21;;;;;;;16.63;6.97;;;;;;;;;;10512569;28;19927;-79
2022/12/20 21:09:23;;;;;;;19.55;8.93;;;;;;;;;;10483553;28;20090;-79
2022/12/20 21:14:27;;;;;;;16.15;7.32;;;;;;;;;;10504304;28;20067;-79
2022/12/20 21:19:52;;;;;;;19.58;8.15;;;;;;;;;;10510049;28;20535;-79
2022/12/20 21:24:56;;;;;;;16.50;7.40;;;;;;;;;;10487635;28;20405;-78
2022/12/20 21:30:00;;;;;;;24.33;9.40;;;;;;;;;;10498004;28;20040;-80
2022/12/20 21:35:05;;;;;;;21.48;9.13;;;;;;;;;;10500586;28;20226;-79
2022/12/20 21:40:08;;;;;;;22.48;8.48;;;;;;;;;;10517302;28;20418;-79
2022/12/20 21:45:11;;;;;;;22.13;10.27;;;;;;;;;;10487879;28;20047;-79
2022/12/20 21:50:16;;;;;;;26.35;10.85;;;;;;;;;;10508136;28;20461;-80
2022/12/20 21:55:19;;;;;;;;;;;;;;;;;;10522459;28;20046;-78
2022/12/20 22:00:22;;;;;;;27.77;11.52;;;;;;;;;;10519074;28;19967;-78
2022/12/20 22:05:26;;;;;;;26.37;11.10;;;;;;;;;;10502036;28;20044;-79
2022/12/20 22:10:30;;;;;;;25.25;11.25;;;;;;;;;;10497423;28;20070;-79
2022/12/20 22:15:34;;;;;;;32.65;13.07;;;;;;;;;;10496940;28;20459;-79
2022/12/20 22:20:39;;;;;;;31.95;13.98;;;;;;;;;;10513951;28;20501;-79
2022/12/20 22:25:42;;;;;;;29.40;11.48;;;;;;;;;;10517475;28;20051;-79
2022/12/20 22:30:45;;;;;;;28.52;11.98;;;;;;;;;;10515662;28;20036;-79
2022/12/20 22:35:49;;;;;;;24.23;10.88;;;;;;;;;;10516930;28;20039;-80
2022/12/20 22:40:57;;;;;;;30.73;13.43;;;;;;;;;;10517759;28;20047;-80
2022/12/20 22:46:01;;;;;;;30.45;13.48;;;;;;;;;;10518628;28;20479;-80
2022/12/20 22:51:06;;;;;;;30.42;12.45;;;;;;;;;;10518236;28;20098;-80
2022/12/20 22:56:11;;;;;;;33.80;12.65;;;;;;;;;;10522786;28;20047;-81
2022/12/20 23:01:16;;;;;;;33.75;14.05;;;;;;;;;;10520062;28;20024;-80
2022/12/20 23:06:22;;;;;;;39.72;15.05;;;;;;;;;;10519822;28;20071;-81
2022/12/20 23:16:48;;;;;;;33.03;13.75;;;;;;;;;;10493248;28;20075;-80
2022/12/20 23:27:14;;;;;;;34.33;14.70;;;;;;;;;;10506861;28;20035;-80
2022/12/20 23:32:17;;;;;;;33.53;13.18;;;;;;;;;;10515844;28;20028;-79
2022/12/20 23:37:24;;;;;;;29.23;10.53;;;;;;;;;;10514767;28;20040;-78
2022/12/20 23:42:27;;;;;;;31.02;12.20;;;;;;;;;;10513591;28;20051;-78
2022/12/20 23:47:31;;;;;;;27.52;12.05;;;;;;;;;;10526049;28;20052;-79
2022/12/20 23:52:35;;;;;;;24.58;9.43;;;;;;;;;;10517357;28;20055;-78
2022/12/20 23:57:38;;;;;;;15.68;4.40;;;;;;;;;;10565979;28;20027;-78
